Time;durP1;ratioP1;P1;durP2;ratioP2;P2;SDS_P1;SDS_P2;PMS_P1;PMS_P2;Temp;Humidity;BMP_temperature;BMP_pressure;BME280_temperature;BME280_humidity;BME280_pressure;Samples;Min_cycle;Max_cycle;Signal;HPM_P1;HPM_P2
2024/01/22 00:00:28;;;;;;;35.95;17.35;;;;;;;23.90;100.00;56616.03;5066869;28;20289;-74
2024/01/22 00:02:54;;;;;;;27.17;14.48;;;;;;;-142.91;100.00;56616.03;5066558;28;20213;-74
2024/01/22 00:05:21;;;;;;;25.90;14.03;;;;;;;106.45;100.00;56616.03;5064665;28;20285;-72
2024/01/22 00:07:49;;;;;;;27.70;13.82;;;;;;;33.65;100.00;56616.03;5067438;28;20735;-74
2024/01/22 00:10:16;;;;;;;31.33;14.07;;;;;;;23.26;100.00;56616.03;5066153;28;20293;-73
2024/01/22 00:12:42;;;;;;;30.17;15.80;;;;;;;189.72;100.00;56616.03;5088761;22;21079;-73
2024/01/22 00:15:09;;;;;;;37.42;16.90;;;;;;;189.72;100.00;56616.03;5067102;28;20364;-73
2024/01/22 00:17:36;;;;;;;48.28;22.70;;;;;;;189.72;100.00;56616.03;5066903;28;20203;-74
2024/01/22 00:20:03;;;;;;;52.47;23.15;;;;;;;106.45;100.00;56616.03;5065992;28;20229;-73
2024/01/22 00:22:30;;;;;;;39.88;19.65;;;;;;;-142.91;100.00;56616.03;5055253;28;20312;-73
2024/01/22 00:24:58;;;;;;;34.30;16.90;;;;;;;64.84;100.00;56616.03;5056391;28;20757;-72
2024/01/22 00:27:24;;;;;;;30.70;14.63;;;;;;;189.72;100.00;56616.03;5054659;28;20297;-73
2024/01/22 00:29:51;;;;;;;43.30;18.90;;;;;;;-142.91;100.00;56616.03;5053775;28;20633;-74
2024/01/22 00:32:18;;;;;;;47.97;22.23;;;;;;;-142.91;100.00;56616.03;5050597;28;20203;-73
2024/01/22 00:34:44;;;;;;;50.80;23.23;;;;;;;64.84;100.00;56616.03;5057198;28;20772;-73
2024/01/22 00:37:11;;;;;;;52.08;24.23;;;;;;;-142.91;100.00;56616.03;5056752;28;20297;-73
2024/01/22 00:39:38;;;;;;;53.20;23.45;;;;;;;-142.91;100.00;56616.03;5055833;28;20290;-72
2024/01/22 00:42:06;;;;;;;36.67;16.97;;;;;;;-142.91;100.00;56616.03;5051903;28;20278;-72
2024/01/22 00:44:32;;;;;;;40.13;17.33;;;;;;;-142.91;100.00;56616.03;5053993;28;20290;-74
2024/01/22 00:46:59;;;;;;;40.33;19.40;;;;;;;189.72;100.00;56616.03;5051198;28;20735;-71
2024/01/22 00:49:26;;;;;;;37.92;19.00;;;;;;;-142.91;100.00;56616.03;5058458;28;20334;-72
2024/01/22 00:51:52;;;;;;;29.73;16.37;;;;;;;-142.91;100.00;56616.03;5052672;28;20687;-72
2024/01/22 00:54:19;;;;;;;44.47;18.63;;;;;;;189.72;100.00;56616.03;5051888;28;20326;-74
2024/01/22 00:56:45;;;;;;;40.27;19.00;;;;;;;-142.91;100.00;56616.03;5053157;28;20290;-72
2024/01/22 00:59:13;;;;;;;39.65;19.50;;;;;;;189.72;100.00;56616.03;5052041;28;20294;-74
2024/01/22 01:01:40;;;;;;;47.15;20.23;;;;;;;106.45;100.00;56616.03;5048158;28;20286;-74
2024/01/22 01:04:07;;;;;;;38.13;18.45;;;;;;;-142.91;100.00;56616.03;5050311;28;20735;-73
2024/01/22 01:06:33;;;;;;;37.83;18.88;;;;;;;-142.91;100.00;56616.03;5053086;28;20221;-73
2024/01/22 01:09:00;;;;;;;47.25;21.92;;;;;;;44.04;100.00;56616.03;5050777;28;20878;-73
2024/01/22 01:11:26;;;;;;;32.73;17.70;;;;;;;189.72;100.00;56616.03;5051829;28;20303;-73
2024/01/22 01:13:53;;;;;;;37.58;18.63;;;;;;;-142.91;100.00;56616.03;5054507;28;20334;-72
2024/01/22 01:16:21;;;;;;;47.00;20.55;;;;;;;-142.91;100.00;56616.03;5055017;28;20685;-73
2024/01/22 01:18:49;;;;;;;47.30;21.15;;;;;;;-142.91;100.00;56616.03;5053683;28;20744;-73
2024/01/22 01:21:16;;;;;;;49.40;22.70;;;;;;;-142.91;100.00;56616.03;5048000;28;20325;-73
2024/01/22 01:23:43;;;;;;;54.90;22.17;;;;;;;106.45;100.00;56616.03;5052002;28;20605;-74
2024/01/22 01:26:10;;;;;;;54.63;23.83;;;;;;;189.72;100.00;56616.03;5049732;28;20290;-72
2024/01/22 01:28:36;;;;;;;57.92;23.48;;;;;;;189.72;100.00;56616.03;5051959;28;20293;-73
2024/01/22 01:31:03;;;;;;;59.15;24.05;;;;;;;25.85;100.00;56616.03;5056016;28;20244;-72
2024/01/22 01:33:31;;;;;;;45.97;23.55;;;;;;;23.33;100.00;56616.03;5048184;28;20285;-74
2024/01/22 01:35:58;;;;;;;47.58;23.92;;;;;;;-142.91;100.00;56616.03;5050311;28;20263;-75
2024/01/22 01:38:24;;;;;;;46.37;21.73;;;;;;;23.29;100.00;56616.03;5049437;28;20293;-73
2024/01/22 01:40:51;;;;;;;42.50;21.08;;;;;;;64.84;100.00;56616.03;5055357;28;20237;-74
2024/01/22 01:43:19;;;;;;;41.78;20.60;;;;;;;-142.91;100.00;56616.03;5052706;28;20208;-73
2024/01/22 01:45:45;;;;;;;45.67;21.42;;;;;;;189.72;100.00;56616.03;5051334;28;20294;-73
2024/01/22 01:48:13;;;;;;;44.38;20.48;;;;;;;-142.91;100.00;56616.03;5051216;28;20230;-73
2024/01/22 01:50:41;;;;;;;40.33;19.50;;;;;;;64.84;100.00;56616.03;5052381;28;20684;-73
2024/01/22 01:53:09;;;;;;;36.85;19.10;;;;;;;-142.91;100.00;56616.03;5053089;28;20226;-73
2024/01/22 01:55:38;;;;;;;43.40;19.77;;;;;;;189.72;100.00;56616.03;5049065;28;20257;-72
2024/01/22 01:58:06;;;;;;;34.60;15.90;;;;;;;23.90;100.00;56616.03;5052738;28;20198;-73
2024/01/22 02:00:33;;;;;;;40.78;20.05;;;;;;;-142.91;100.00;56616.03;5051336;28;20206;-72
2024/01/22 02:03:00;;;;;;;44.25;19.15;;;;;;;-142.91;100.00;56616.03;5056672;28;20289;-74
2024/01/22 02:05:26;;;;;;;40.45;18.95;;;;;;;189.72;100.00;56616.03;5052567;28;20297;-73
2024/01/22 02:07:54;;;;;;;51.67;20.73;;;;;;;23.25;100.00;56616.03;5050907;28;20759;-75
2024/01/22 02:10:21;;;;;;;45.55;21.58;;;;;;;23.26;100.00;56616.03;5049052;28;20290;-73
2024/01/22 02:12:47;;;;;;;44.15;20.88;;;;;;;-142.91;100.00;56616.03;5052517;28;20322;-72
2024/01/22 02:15:14;;;;;;;43.08;21.65;;;;;;;-142.91;100.00;56616.03;5056426;28;20313;-72
2024/01/22 02:17:41;;;;;;;38.63;19.00;;;;;;;-142.91;100.00;56616.03;5053218;28;20288;-74
2024/01/22 02:20:09;;;;;;;44.35;20.15;;;;;;;106.45;100.00;56616.03;5049039;28;20281;-71
2024/01/22 02:22:35;;;;;;;42.30;18.53;;;;;;;-142.91;100.00;56616.03;5052282;28;20280;-71
2024/01/22 02:25:04;;;;;;;39.63;17.77;;;;;;;106.45;100.00;56616.03;5057507;28;20281;-74
2024/01/22 02:27:30;;;;;;;34.07;19.20;;;;;;;23.25;100.00;56616.03;5064969;28;20321;-73
2024/01/22 02:29:57;;;;;;;36.60;18.13;;;;;;;-142.91;100.00;56616.03;5057938;28;20301;-73
2024/01/22 02:32:24;;;;;;;37.10;18.40;;;;;;;189.72;100.00;56616.03;5060285;28;20290;-73
2024/01/22 02:34:50;;;;;;;36.30;17.40;;;;;;;189.72;100.00;56616.03;5059128;28;20314;-72
2024/01/22 02:37:17;;;;;;;47.20;19.73;;;;;;;-142.91;100.00;56616.03;5059408;28;20281;-72
2024/01/22 02:39:43;;;;;;;39.50;20.10;;;;;;;-142.91;100.00;56616.03;5057565;28;20199;-72
2024/01/22 02:42:11;;;;;;;45.13;20.30;;;;;;;-142.91;100.00;56616.03;5051694;28;20298;-73
2024/01/22 02:44:38;;;;;;;41.33;18.63;;;;;;;-142.91;100.00;56616.03;5056068;28;20242;-72
2024/01/22 02:47:05;;;;;;;45.47;19.75;;;;;;;189.72;100.00;56616.03;5046830;28;20281;-73
2024/01/22 02:49:33;;;;;;;51.00;21.80;;;;;;;-142.91;100.00;56616.03;5055433;28;20338;-74
2024/01/22 02:51:59;;;;;;;58.97;22.30;;;;;;;44.04;100.00;56616.03;5055091;28;20290;-74
2024/01/22 02:54:27;;;;;;;52.58;22.88;;;;;;;-142.91;100.00;56616.03;5052964;28;20306;-73
2024/01/22 02:56:54;;;;;;;51.13;21.33;;;;;;;189.72;100.00;56616.03;5054063;28;20301;-74
2024/01/22 02:59:22;;;;;;;50.20;22.27;;;;;;;64.84;100.00;56616.03;5060972;28;20641;-73
2024/01/22 03:01:48;;;;;;;59.65;26.52;;;;;;;-142.91;100.00;56616.03;5056694;28;20622;-74
2024/01/22 03:04:15;;;;;;;54.20;24.55;;;;;;;-142.91;100.00;56616.03;5055611;28;20289;-73
2024/01/22 03:06:42;;;;;;;52.57;25.10;;;;;;;-142.91;100.00;56616.03;5054955;28;21399;-72
2024/01/22 03:09:09;;;;;;;64.97;25.37;;;;;;;189.72;100.00;56616.03;5052326;28;20263;-74
2024/01/22 03:11:35;;;;;;;71.53;27.70;;;;;;;-142.91;100.00;56616.03;5050919;28;20218;-72
2024/01/22 03:14:02;;;;;;;67.57;32.47;;;;;;;-142.91;100.00;56616.03;5054897;28;20314;-73
2024/01/22 03:16:30;;;;;;;70.63;30.85;;;;;;;;;;5058287;28;20250;-72
2024/01/22 03:18:56;;;;;;;86.03;33.23;;;;;;;-142.91;100.00;56616.03;5054105;28;20317;-73
2024/01/22 03:21:23;;;;;;;82.70;32.38;;;;;;;-142.91;100.00;56616.03;5052399;28;20230;-72
2024/01/22 03:23:50;;;;;;;76.28;29.70;;;;;;;189.72;100.00;56616.03;5053878;28;20679;-72
2024/01/22 03:26:20;;;;;;;65.93;28.30;;;;;;;23.26;100.00;56616.03;5055104;28;20293;-73
2024/01/22 03:28:48;;;;;;;58.47;25.00;;;;;;;-142.91;100.00;56616.03;5050178;28;20211;-74
2024/01/22 03:31:22;;;;;;;52.67;25.30;;;;;;;64.84;100.00;56616.03;5057936;28;20260;-74
2024/01/22 03:33:50;;;;;;;65.30;24.73;;;;;;;;;;5051890;28;20756;-74
2024/01/22 03:36:16;;;;;;;58.95;24.50;;;;;;;;;;5058974;28;20317;-73
2024/01/22 03:38:44;;;;;;;53.50;23.37;;;;;;;189.72;100.00;56616.03;5061271;28;20293;-73
2024/01/22 03:41:10;;;;;;;51.50;22.42;;;;;;;189.72;100.00;56616.03;5052312;28;20302;-73
2024/01/22 03:43:37;;;;;;;52.50;23.27;;;;;;;23.25;100.00;56616.03;5056032;28;20309;-72
2024/01/22 03:46:04;;;;;;;48.20;21.70;;;;;;;-142.91;100.00;56616.03;5059017;28;20294;-73
2024/01/22 03:48:31;;;;;;;52.53;23.00;;;;;;;106.45;100.00;56616.03;5055043;28;20222;-72
2024/01/22 03:50:59;;;;;;;58.20;22.45;;;;;;;189.72;100.00;56616.03;5061241;28;20294;-73
2024/01/22 03:53:25;;;;;;;63.83;25.35;;;;;;;106.45;100.00;56616.03;5058268;28;20314;-73
2024/01/22 03:55:52;;;;;;;62.13;23.80;;;;;;;24.55;100.00;56616.03;5050134;28;20306;-75
2024/01/22 03:58:19;;;;;;;54.10;23.47;;;;;;;-142.91;100.00;56616.03;5059926;28;20290;-73
2024/01/22 04:00:45;;;;;;;49.60;23.40;;;;;;;-142.91;100.00;56616.03;5060244;28;20290;-73
2024/01/22 04:03:12;;;;;;;56.70;27.07;;;;;;;;;;5057087;28;20310;-72
2024/01/22 04:05:38;;;;;;;47.27;22.53;;;;;;;106.45;100.00;56616.03;5058074;28;20291;-72
2024/01/22 04:08:07;;;;;;;53.43;22.27;;;;;;;23.25;100.00;56616.03;5057846;28;20269;-73
2024/01/22 04:10:34;;;;;;;55.70;23.17;;;;;;;44.04;100.00;56616.03;5052808;28;20976;-73
2024/01/22 04:13:01;;;;;;;48.07;21.50;;;;;;;189.72;100.00;56616.03;5053159;28;20227;-72
2024/01/22 04:15:27;;;;;;;49.23;21.50;;;;;;;64.84;100.00;56616.03;5056182;28;20250;-73
2024/01/22 04:17:54;;;;;;;44.00;21.10;;;;;;;-142.91;100.00;56616.03;5056019;28;20234;-73
2024/01/22 04:20:20;;;;;;;41.57;21.07;;;;;;;-142.91;100.00;56616.03;5057585;28;20318;-73
2024/01/22 04:22:47;;;;;;;45.80;20.48;;;;;;;-142.91;100.00;56616.03;5056605;28;20312;-73
2024/01/22 04:25:15;;;;;;;52.00;19.30;;;;;;;-142.91;100.00;56616.03;5056202;28;20281;-73
2024/01/22 04:27:42;;;;;;;42.57;20.63;;;;;;;189.72;100.00;56616.03;5056178;28;20292;-73
2024/01/22 04:30:09;;;;;;;42.80;19.30;;;;;;;23.26;100.00;56616.03;5054376;28;20673;-73
2024/01/22 04:32:36;;;;;;;44.60;19.08;;;;;;;-142.91;100.00;56616.03;5050200;28;20213;-74
2024/01/22 04:35:04;;;;;;;47.67;20.57;;;;;;;-142.91;100.00;56616.03;5051479;28;20285;-74
2024/01/22 04:37:30;;;;;;;40.87;20.60;;;;;;;106.45;100.00;56616.03;5048657;28;20207;-74
2024/01/22 04:40:08;;;;;;;43.00;19.53;;;;;;;23.26;100.00;56616.03;5051511;28;20772;-74
2024/01/22 04:42:36;;;;;;;45.03;21.50;;;;;;;64.84;100.00;56616.03;5053473;28;20642;-74
2024/01/22 04:45:03;;;;;;;50.92;21.38;;;;;;;189.72;100.00;56616.03;5048334;28;20289;-74
2024/01/22 04:47:30;;;;;;;48.70;21.87;;;;;;;;;;5057524;28;20918;-73
2024/01/22 04:49:56;;;;;;;52.33;22.97;;;;;;;106.45;100.00;56616.03;5051372;28;20238;-74
2024/01/22 04:52:23;;;;;;;46.87;21.17;;;;;;;-142.91;100.00;56616.03;5054954;28;20256;-73
2024/01/22 04:54:50;;;;;;;36.00;18.07;;;;;;;-142.91;100.00;56616.03;5059912;28;20294;-73
2024/01/22 04:57:16;;;;;;;42.60;20.10;;;;;;;-142.91;100.00;56616.03;5056889;28;20774;-72
2024/01/22 04:59:44;;;;;;;43.10;19.45;;;;;;;-142.91;100.00;56616.03;5053602;28;20293;-74
2024/01/22 05:02:11;;;;;;;43.28;19.55;;;;;;;-142.91;100.00;56616.03;5058290;28;20289;-74
2024/01/22 05:04:37;;;;;;;43.17;20.70;;;;;;;-142.91;100.00;56616.03;5054085;28;20781;-73
2024/01/22 05:07:04;;;;;;;47.22;21.50;;;;;;;-142.91;100.00;56616.03;5053070;28;20655;-73
2024/01/22 05:09:31;;;;;;;46.28;19.38;;;;;;;-142.91;100.00;56616.03;5052929;28;20286;-73
2024/01/22 05:11:57;;;;;;;46.47;21.20;;;;;;;-142.91;100.00;56616.03;5052412;28;20199;-72
2024/01/22 05:14:24;;;;;;;52.25;22.08;;;;;;;-142.91;100.00;56616.03;5047723;28;20314;-74
2024/01/22 05:16:52;;;;;;;49.67;22.70;;;;;;;-142.91;100.00;56616.03;5053628;28;20762;-73
2024/01/22 05:19:19;;;;;;;44.83;20.27;;;;;;;-142.91;100.00;56616.03;5052393;28;20226;-73
2024/01/22 05:21:45;;;;;;;42.10;18.50;;;;;;;28.45;100.00;56616.03;5052232;28;20676;-73
2024/01/22 05:24:12;;;;;;;40.15;19.48;;;;;;;-142.91;100.00;56616.03;5054889;28;20197;-73
2024/01/22 05:26:39;;;;;;;46.92;19.52;;;;;;;-142.91;100.00;56616.03;5048553;28;20374;-74
2024/01/22 05:29:05;;;;;;;42.17;19.47;;;;;;;-142.91;100.00;56616.03;5047509;28;20294;-73
2024/01/22 05:31:32;;;;;;;49.33;19.35;;;;;;;23.25;100.00;56616.03;5058325;28;20235;-75
2024/01/22 05:34:00;;;;;;;48.05;20.27;;;;;;;;;;5058277;28;20291;-75
2024/01/22 05:36:26;;;;;;;41.78;19.70;;;;;;;-142.91;100.00;56616.03;5054155;28;20303;-73
2024/01/22 05:38:53;;;;;;;42.60;18.92;;;;;;;-142.91;100.00;56616.03;5056087;28;20287;-74
2024/01/22 05:41:19;;;;;;;36.63;17.30;;;;;;;189.72;100.00;56616.03;5056728;28;20231;-73
2024/01/22 05:43:46;;;;;;;45.30;20.33;;;;;;;-142.91;100.00;56616.03;5058824;28;20283;-74
2024/01/22 05:46:13;;;;;;;42.97;17.42;;;;;;;-142.91;100.00;56616.03;5055618;28;20294;-72
2024/01/22 05:48:39;;;;;;;38.03;17.27;;;;;;;-142.91;100.00;56616.03;5051308;28;20289;-74
2024/01/22 05:51:07;;;;;;;37.25;16.85;;;;;;;-142.91;100.00;56616.03;5051184;28;20298;-74
2024/01/22 05:53:37;;;;;;;42.80;19.00;;;;;;;-142.91;100.00;56616.03;5051670;28;20226;-73
2024/01/22 05:56:04;;;;;;;39.93;17.53;;;;;;;-142.91;100.00;56616.03;5051192;28;20783;-73
2024/01/22 05:58:31;;;;;;;46.30;18.63;;;;;;;-142.91;100.00;56616.03;5054149;28;20286;-72
2024/01/22 06:00:58;;;;;;;48.97;20.88;;;;;;;-142.91;100.00;56616.03;5050764;28;20294;-74
2024/01/22 06:03:24;;;;;;;39.43;18.40;;;;;;;-142.91;100.00;56616.03;5051194;28;20293;-73
2024/01/22 06:05:51;;;;;;;48.33;20.88;;;;;;;-142.91;100.00;56616.03;5052109;28;20242;-74
2024/01/22 06:08:19;;;;;;;39.17;18.03;;;;;;;-142.91;100.00;56616.03;5046039;28;20792;-73
2024/01/22 06:10:45;;;;;;;43.03;18.67;;;;;;;44.04;100.00;56616.03;5054032;28;20289;-72
2024/01/22 06:13:12;;;;;;;34.13;16.60;;;;;;;-142.91;100.00;56616.03;5053625;28;20265;-75
2024/01/22 06:15:39;;;;;;;38.47;18.67;;;;;;;-142.91;100.00;56616.03;5053912;28;20207;-72
2024/01/22 06:18:06;;;;;;;40.03;18.73;;;;;;;23.90;100.00;56616.03;5054068;28;20221;-74
2024/01/22 06:20:33;;;;;;;45.97;21.30;;;;;;;-142.91;100.00;56616.03;5050452;28;20605;-74
2024/01/22 06:23:00;;;;;;;50.97;19.15;;;;;;;-142.91;100.00;56616.03;5055825;28;20293;-75
2024/01/22 06:25:28;;;;;;;44.50;20.75;;;;;;;-142.91;100.00;56616.03;5054137;28;20226;-74
2024/01/22 06:27:55;;;;;;;44.73;21.00;;;;;;;-142.91;100.00;56616.03;5055516;28;20326;-73
2024/01/22 06:30:21;;;;;;;46.92;20.80;;;;;;;-142.91;100.00;56616.03;5057747;28;20289;-73
2024/01/22 06:32:48;;;;;;;48.63;22.03;;;;;;;-142.91;100.00;56616.03;5057615;28;20294;-73
2024/01/22 06:35:15;;;;;;;54.30;23.53;;;;;;;106.45;100.00;56616.03;5055342;28;21675;-74
2024/01/22 06:37:42;;;;;;;50.28;22.60;;;;;;;-142.91;100.00;56616.03;5053680;28;20230;-77
2024/01/22 06:40:09;;;;;;;49.40;22.10;;;;;;;-142.91;100.00;56616.03;5049895;28;20199;-74
2024/01/22 06:42:37;;;;;;;39.50;17.70;;;;;;;-142.91;100.00;56616.03;5053832;28;20293;-75
2024/01/22 06:45:05;;;;;;;52.37;23.77;;;;;;;189.72;100.00;56616.03;5056237;28;20654;-75
2024/01/22 06:47:34;;;;;;;33.20;16.65;;;;;;;-142.91;100.00;56616.03;5054270;28;20282;-75
2024/01/22 06:50:00;;;;;;;43.63;17.67;;;;;;;23.25;100.00;56616.03;5058156;28;20910;-74
2024/01/22 06:52:27;;;;;;;38.30;16.10;;;;;;;-142.91;100.00;56616.03;5052053;28;20234;-74
2024/01/22 06:54:55;;;;;;;37.88;19.30;;;;;;;189.72;100.00;56616.03;5053092;28;20278;-74
2024/01/22 06:57:22;;;;;;;37.88;18.10;;;;;;;106.45;100.00;56616.03;5050155;28;20712;-74
2024/01/22 06:59:52;;;;;;;35.72;17.73;;;;;;;-142.91;100.00;56616.03;5047852;28;20211;-76
2024/01/22 07:02:19;;;;;;;35.70;17.73;;;;;;;-142.91;100.00;56616.03;5053949;28;20222;-73
2024/01/22 07:04:46;;;;;;;37.90;18.75;;;;;;;33.65;100.00;56616.03;5051649;28;20676;-75
2024/01/22 07:07:13;;;;;;;43.13;20.60;;;;;;;-142.91;100.00;56616.03;5050614;28;20199;-76
2024/01/22 07:09:39;;;;;;;42.85;18.33;;;;;;;-142.91;100.00;56616.03;5059648;28;20206;-76
2024/01/22 07:12:06;;;;;;;48.00;20.08;;;;;;;-142.91;100.00;56616.03;5059611;28;20289;-74
2024/01/22 07:14:33;;;;;;;33.05;16.65;;;;;;;-142.91;100.00;56616.03;5061255;28;20318;-73
2024/01/22 07:17:03;;;;;;;32.67;15.07;;;;;;;23.26;100.00;56616.03;5054791;28;20233;-74
2024/01/22 07:19:29;;;;;;;36.80;17.53;;;;;;;-142.91;100.00;56616.03;5059218;28;20205;-75
2024/01/22 07:21:56;;;;;;;35.03;15.50;;;;;;;-142.91;100.00;56616.03;5053510;28;20318;-72
2024/01/22 07:24:22;;;;;;;39.40;17.27;;;;;;;-142.91;100.00;56616.03;5055550;28;20665;-74
2024/01/22 07:26:49;;;;;;;35.55;17.27;;;;;;;189.72;100.00;56616.03;5059064;28;20299;-73
2024/01/22 07:29:16;;;;;;;40.00;17.70;;;;;;;44.04;100.00;56616.03;5062488;28;20306;-74
2024/01/22 07:31:42;;;;;;;28.90;16.20;;;;;;;-142.91;100.00;56616.03;5055033;28;20298;-73
2024/01/22 07:34:11;;;;;;;34.93;16.53;;;;;;;-142.91;100.00;56616.03;5054766;28;20285;-76
2024/01/22 07:36:38;;;;;;;43.40;18.00;;;;;;;-142.91;100.00;56616.03;5052992;28;20712;-74
2024/01/22 07:39:04;;;;;;;34.17;16.00;;;;;;;-142.91;100.00;56616.03;5052979;28;20291;-75
2024/01/22 07:41:31;;;;;;;26.05;14.45;;;;;;;23.27;100.00;56616.03;5050603;28;20290;-74
2024/01/22 07:43:58;;;;;;;28.63;14.37;;;;;;;23.26;100.00;56616.03;5055453;28;20696;-76
2024/01/22 07:46:24;;;;;;;36.30;16.58;;;;;;;-142.91;100.00;56616.03;5055142;28;20218;-75
2024/01/22 07:48:52;;;;;;;34.20;17.10;;;;;;;-142.91;100.00;56616.03;5054759;28;20285;-76
2024/01/22 07:51:20;;;;;;;38.38;19.30;;;;;;;189.72;100.00;56616.03;5051595;28;20206;-73
2024/01/22 07:53:47;;;;;;;34.05;16.58;;;;;;;189.72;100.00;56616.03;5058154;28;20198;-75
2024/01/22 07:56:13;;;;;;;37.13;16.88;;;;;;;-142.91;100.00;56616.03;5053463;28;20630;-74
2024/01/22 07:58:40;;;;;;;32.40;17.08;;;;;;;-142.91;100.00;56616.03;5053686;28;20235;-74
2024/01/22 08:01:08;;;;;;;31.50;16.35;;;;;;;189.72;100.00;56616.03;5052969;28;20292;-75
2024/01/22 08:03:34;;;;;;;33.53;16.33;;;;;;;;;;5051811;28;20289;-75
2024/01/22 08:06:01;;;;;;;42.93;21.63;;;;;;;-142.91;100.00;56616.03;5042091;28;20289;-74
2024/01/22 08:08:29;;;;;;;38.20;18.33;;;;;;;23.25;100.00;56616.03;5046628;28;20725;-74
2024/01/22 08:10:56;;;;;;;44.28;16.77;;;;;;;23.57;100.00;56616.03;5053563;28;20628;-73
2024/01/22 08:13:24;;;;;;;41.33;16.88;;;;;;;-142.91;100.00;56616.03;5051457;28;20241;-72
2024/01/22 08:15:51;;;;;;;43.72;17.60;;;;;;;-142.91;100.00;56616.03;5053047;28;20374;-73
2024/01/22 08:18:18;;;;;;;37.03;17.30;;;;;;;23.25;100.00;56616.03;5049764;28;20319;-73
2024/01/22 08:20:45;;;;;;;47.03;19.67;;;;;;;-142.91;100.00;56616.03;5046956;28;20219;-73
2024/01/22 08:23:12;;;;;;;47.35;20.13;;;;;;;106.45;100.00;56616.03;5050285;28;20395;-76
2024/01/22 08:25:40;;;;;;;46.63;21.58;;;;;;;-142.91;100.00;56616.03;5044851;28;20290;-77
2024/01/22 08:28:06;;;;;;;50.78;20.92;;;;;;;33.65;100.00;56616.03;5057359;28;20287;-75
2024/01/22 08:30:33;;;;;;;50.58;22.05;;;;;;;23.41;100.00;56616.03;5049660;28;20294;-74
2024/01/22 08:33:00;;;;;;;53.35;22.65;;;;;;;-142.91;100.00;56616.03;5052198;28;20760;-74
2024/01/22 08:35:26;;;;;;;54.90;24.08;;;;;;;23.29;100.00;56616.03;5046105;28;20334;-71
2024/01/22 08:37:54;;;;;;;53.20;21.80;;;;;;;189.72;100.00;56616.03;5025991;28;20639;-74
2024/01/22 08:40:22;;;;;;;53.97;25.00;;;;;;;-142.91;100.00;56616.03;5028432;28;20301;-74
2024/01/22 08:42:51;;;;;;;54.77;23.53;;;;;;;189.72;100.00;56616.03;5024245;28;20218;-75
2024/01/22 08:45:18;;;;;;;69.97;26.20;;;;;;;;;;5026110;28;20286;-75
2024/01/22 08:47:45;;;;;;;58.57;25.50;;;;;;;-142.91;100.00;56616.03;5023980;28;20763;-76
2024/01/22 08:50:15;;;;;;;59.53;24.60;;;;;;;-142.91;100.00;56616.03;5047520;28;20203;-74
2024/01/22 08:52:42;;;;;;;58.67;25.02;;;;;;;-142.91;100.00;56616.03;5051047;28;21348;-76
2024/01/22 08:55:09;;;;;;;53.63;25.83;;;;;;;-142.91;100.00;56616.03;5052337;28;20703;-75
2024/01/22 08:57:36;;;;;;;58.25;24.05;;;;;;;106.45;100.00;56616.03;5052918;28;20322;-74
2024/01/22 09:00:06;;;;;;;58.40;24.63;;;;;;;-142.91;100.00;56616.03;5055468;28;20672;-75
2024/01/22 09:02:32;;;;;;;55.30;24.20;;;;;;;-142.91;100.00;56616.03;5055795;28;20213;-75
2024/01/22 09:04:59;;;;;;;55.67;23.77;;;;;;;64.84;100.00;56616.03;5051319;28;20289;-75
2024/01/22 09:07:25;;;;;;;65.85;27.77;;;;;;;;;;5054497;28;20298;-75
2024/01/22 09:09:52;;;;;;;64.13;25.55;;;;;;;-142.91;100.00;56616.03;5059401;28;20223;-72
2024/01/22 09:12:19;;;;;;;52.25;24.63;;;;;;;-142.91;100.00;56616.03;5058228;28;21004;-79
2024/01/22 09:14:45;;;;;;;59.65;27.63;;;;;;;-142.91;100.00;56616.03;5046324;28;20244;-73
2024/01/22 09:17:13;;;;;;;58.53;24.95;;;;;;;23.41;100.00;56616.03;5032580;28;20317;-72
2024/01/22 09:19:40;;;;;;;61.65;25.95;;;;;;;189.72;100.00;56616.03;5048921;28;20290;-72
2024/01/22 09:22:06;;;;;;;57.20;26.58;;;;;;;;;;5049701;28;20317;-73
2024/01/22 09:24:33;;;;;;;67.00;26.40;;;;;;;23.33;100.00;56616.03;5052096;28;20292;-76
2024/01/22 09:27:00;;;;;;;59.40;26.33;;;;;;;189.72;100.00;56616.03;5043039;28;20733;-76
2024/01/22 09:29:26;;;;;;;57.13;25.15;;;;;;;106.45;100.00;56616.03;5052230;28;20289;-75
2024/01/22 09:31:53;;;;;;;57.00;25.85;;;;;;;189.72;100.00;56616.03;5049975;28;20214;-77
2024/01/22 09:34:21;;;;;;;61.00;25.02;;;;;;;-142.91;100.00;56616.03;5053527;28;20226;-79
2024/01/22 09:36:47;;;;;;;61.75;25.27;;;;;;;24.55;100.00;56616.03;5048335;28;20277;-79
2024/01/22 09:39:14;;;;;;;63.58;26.80;;;;;;;23.33;100.00;56616.03;5052590;28;20707;-79
2024/01/22 09:41:41;;;;;;;59.30;26.08;;;;;;;-142.91;100.00;56616.03;5049389;28;20684;-77
2024/01/22 09:44:08;;;;;;;64.72;29.98;;;;;;;-142.91;100.00;56616.03;5048721;28;20230;-75
2024/01/22 09:46:35;;;;;;;59.28;28.08;;;;;;;-142.91;100.00;56616.03;5048099;28;20714;-77
2024/01/22 09:49:02;;;;;;;65.80;27.52;;;;;;;23.26;100.00;56616.03;5048366;28;20223;-74
2024/01/22 09:51:30;;;;;;;72.47;29.05;;;;;;;-142.91;100.00;56616.03;5047950;28;20242;-78
2024/01/22 09:54:06;;;;;;;58.55;28.08;;;;;;;189.72;100.00;56616.03;5048282;28;20281;-75
2024/01/22 09:56:35;;;;;;;64.63;28.23;;;;;;;189.72;100.00;56616.03;5041766;28;20230;-77
2024/01/22 09:59:05;;;;;;;58.75;26.38;;;;;;;;;;5048060;28;20202;-76
2024/01/22 10:01:32;;;;;;;65.47;26.83;;;;;;;-142.91;100.00;56616.03;5049699;28;20274;-78
2024/01/22 10:03:59;;;;;;;64.60;27.92;;;;;;;-142.91;100.00;56616.03;5048263;28;20209;-75
2024/01/22 10:06:28;;;;;;;64.50;28.13;;;;;;;189.72;100.00;56616.03;5038694;28;20230;-77
2024/01/22 10:08:59;;;;;;;64.07;28.48;;;;;;;23.27;100.00;56616.03;5062820;28;20233;-75
2024/01/22 10:11:26;;;;;;;68.03;28.77;;;;;;;-142.91;100.00;56616.03;5050061;28;20315;-75
2024/01/22 10:13:52;;;;;;;58.53;27.15;;;;;;;-142.91;100.00;56616.03;5046567;28;20245;-77
2024/01/22 10:16:19;;;;;;;65.38;28.80;;;;;;;-142.91;100.00;56616.03;5040045;28;20304;-78
2024/01/22 10:18:57;;;;;;;65.38;28.15;;;;;;;-142.91;100.00;56616.03;5049418;28;20265;-76
2024/01/22 10:21:24;;;;;;;60.80;28.92;;;;;;;-142.91;100.00;56616.03;5050016;28;20230;-77
2024/01/22 10:23:56;;;;;;;59.60;26.95;;;;;;;-142.91;100.00;56616.03;5041185;28;20653;-77
2024/01/22 10:26:24;;;;;;;62.95;29.23;;;;;;;-142.91;100.00;56616.03;5057023;28;20207;-74
2024/01/22 10:28:51;;;;;;;62.67;28.17;;;;;;;;;;5049631;28;20223;-76
2024/01/22 10:31:17;;;;;;;73.00;29.77;;;;;;;;;;5049570;28;20708;-75
2024/01/22 10:33:44;;;;;;;60.97;28.48;;;;;;;;;;5049343;28;20234;-77
2024/01/22 10:36:14;;;;;;;57.00;26.83;;;;;;;;;;5052922;28;20286;-76
2024/01/22 10:38:41;;;;;;;72.40;29.77;;;;;;;189.72;100.00;56616.03;5052974;28;20218;-75
2024/01/22 10:41:16;;;;;;;69.45;31.35;;;;;;;-142.91;100.00;56616.03;5053148;28;20290;-75
2024/01/22 10:43:44;;;;;;;66.47;29.73;;;;;;;-142.91;100.00;56616.03;5042507;28;20242;-77
2024/01/22 10:46:12;;;;;;;73.10;29.75;;;;;;;;;;5053080;28;20241;-76
2024/01/22 10:48:40;;;;;;;79.53;35.08;;;;;;;189.72;100.00;56616.03;5053115;28;20234;-77
2024/01/22 10:51:07;;;;;;;68.88;30.60;;;;;;;-142.91;100.00;56616.03;5053012;28;20296;-74
2024/01/22 10:53:33;;;;;;;79.38;35.90;;;;;;;;;;5053375;28;20245;-75
2024/01/22 10:56:01;;;;;;;77.50;31.67;;;;;;;;;;5052551;28;20294;-77
2024/01/22 10:58:31;;;;;;;78.47;33.97;;;;;;;-142.91;100.00;56616.03;5053304;28;20334;-76
2024/01/22 11:01:02;;;;;;;72.57;33.78;;;;;;;-142.91;100.00;56616.03;5052383;28;20732;-75
2024/01/22 11:03:29;;;;;;;69.97;29.80;;;;;;;;;;5053080;28;20286;-77
2024/01/22 11:05:59;;;;;;;69.25;31.10;;;;;;;-142.91;100.00;56616.03;5048997;28;20294;-76
2024/01/22 11:08:29;;;;;;;72.10;33.10;;;;;;;-142.91;100.00;56616.03;5044236;28;20676;-76